createdAt,value
2016-06-11T00:00:56.151Z,0
2016-06-11T00:01:56.170Z,0
2016-06-11T00:02:56.157Z,0
2016-06-11T00:03:56.160Z,0
2016-06-11T00:04:56.179Z,0
2016-06-11T00:05:56.916Z,0
2016-06-11T00:06:56.169Z,0
2016-06-11T00:07:56.658Z,0
2016-06-11T00:08:56.175Z,0
2016-06-11T00:09:56.742Z,0
2016-06-11T00:10:56.181Z,0
2016-06-11T00:11:56.184Z,0
2016-06-11T00:12:56.188Z,0
2016-06-11T00:13:56.316Z,0
2016-06-11T00:14:57.147Z,0
2016-06-11T00:15:56.197Z,0
2016-06-11T00:16:57.293Z,0
2016-06-11T00:17:56.219Z,0
2016-06-11T00:18:57.019Z,0
2016-06-11T00:19:56.209Z,0
2016-06-11T00:20:57.119Z,0
2016-06-11T00:21:56.231Z,0
2016-06-11T00:22:56.235Z,0
2016-06-11T00:23:56.237Z,0
2016-06-11T00:24:56.224Z,0
2016-06-11T00:25:56.228Z,0
2016-06-11T00:26:56.247Z,0
2016-06-11T00:27:56.234Z,0
2016-06-11T00:28:56.972Z,0
2016-06-11T00:29:57.428Z,0
2016-06-11T00:30:56.259Z,0
2016-06-11T00:31:57.934Z,0
2016-06-11T00:32:56.249Z,0
2016-06-11T00:33:57.205Z,0
2016-06-11T00:34:56.318Z,0
2016-06-11T00:35:56.258Z,0
2016-06-11T00:36:56.278Z,0
2016-06-11T00:37:56.124Z,0
2016-06-11T00:38:56.284Z,0
2016-06-11T00:39:56.286Z,0
2016-06-11T00:40:56.962Z,0
2016-06-11T00:41:56.387Z,0
2016-06-11T00:42:57.155Z,0
2016-06-11T00:43:56.330Z,0
2016-06-11T00:44:57.552Z,0
2016-06-11T00:45:56.321Z,0
2016-06-11T00:46:56.308Z,0
2016-06-11T00:47:56.312Z,0
2016-06-11T00:48:56.314Z,0
2016-06-11T00:49:56.317Z,0
2016-06-11T00:50:56.321Z,0
2016-06-11T00:51:56.418Z,0
2016-06-11T00:52:56.326Z,0
2016-06-11T00:53:56.955Z,0
2016-06-11T00:54:56.177Z,0
2016-06-11T00:55:57.508Z,0
2016-06-11T00:56:56.355Z,0
2016-06-11T00:57:56.357Z,0
2016-06-11T00:58:56.361Z,0
2016-06-11T00:59:56.910Z,0
2016-06-11T01:00:56.351Z,0
2016-06-11T01:01:56.370Z,0
2016-06-11T01:02:56.201Z,0
2016-06-11T01:03:56.360Z,0
2016-06-11T01:04:57.270Z,0
2016-06-11T01:05:56.366Z,0
2016-06-11T01:06:56.948Z,0
2016-06-11T01:07:56.372Z,0
2016-06-11T01:08:56.392Z,0
2016-06-11T01:09:56.395Z,0
2016-06-11T01:10:56.382Z,0
2016-06-11T01:11:56.385Z,0
2016-06-11T01:12:56.388Z,0
2016-06-11T01:13:57.641Z,0
2016-06-11T01:14:56.738Z,0
2016-06-11T01:15:58.569Z,0
2016-06-11T01:16:56.259Z,0
2016-06-11T01:17:57.232Z,0
2016-06-11T01:18:56.423Z,0
2016-06-11T01:19:56.409Z,0
2016-06-11T01:20:56.413Z,0
2016-06-11T01:21:56.260Z,0
2016-06-11T01:22:56.418Z,0
2016-06-11T01:23:56.266Z,0
2016-06-11T01:24:56.424Z,0
2016-06-11T01:25:56.444Z,0
2016-06-11T01:26:56.947Z,0
2016-06-11T01:27:56.137Z,0
2016-06-11T01:28:57.562Z,0
2016-06-11T01:29:57.221Z,0
2016-06-11T01:30:56.444Z,0
2016-06-11T01:31:56.462Z,0
2016-06-11T01:32:56.450Z,0
2016-06-11T01:33:56.514Z,0
2016-06-11T01:34:56.502Z,0
2016-06-11T01:35:56.615Z,0
2016-06-11T01:36:56.462Z,0
2016-06-11T01:37:57.559Z,0
2016-06-11T01:38:56.484Z,0
2016-06-11T01:40:11.299Z,0
2016-06-11T01:40:56.490Z,0
2016-06-11T01:41:56.478Z,0
2016-06-11T01:42:56.324Z,0
2016-06-11T01:43:56.358Z,0
2016-06-11T01:44:56.643Z,0
2016-06-11T01:45:56.489Z,0
2016-06-11T01:46:56.493Z,0
2016-06-11T01:47:56.495Z,0
2016-06-11T01:48:57.045Z,0
2016-06-11T01:49:56.502Z,0
2016-06-11T01:50:57.614Z,0
2016-06-11T01:51:56.507Z,0
2016-06-11T01:52:56.855Z,0
2016-06-11T01:53:56.514Z,0
2016-06-11T01:54:56.517Z,0
2016-06-11T01:55:56.348Z,0
2016-06-11T01:56:56.523Z,0
2016-06-11T01:57:56.526Z,0
2016-06-11T01:58:56.545Z,0
2016-06-11T01:59:57.532Z,0
2016-06-11T02:00:56.536Z,0
2016-06-11T02:01:57.663Z,0
2016-06-11T02:02:56.542Z,0
2016-06-11T02:03:57.107Z,0
2016-06-11T02:04:56.548Z,0
2016-06-11T02:05:56.410Z,0
2016-06-11T02:06:56.554Z,0
2016-06-11T02:07:56.557Z,0
2016-06-11T02:08:56.560Z,0
2016-06-11T02:09:56.564Z,0
2016-06-11T02:10:56.583Z,0
2016-06-11T02:11:56.569Z,0
2016-06-11T02:12:57.292Z,0
2016-06-11T02:13:56.576Z,0
2016-06-11T02:14:58.720Z,0
2016-06-11T02:15:56.581Z,0
2016-06-11T02:16:57.085Z,0
2016-06-11T02:17:56.588Z,0
2016-06-11T02:18:56.591Z,0
2016-06-11T02:19:56.594Z,0
2016-06-11T02:20:56.597Z,0
2016-06-11T02:21:56.600Z,0
2016-06-11T02:22:56.587Z,0
2016-06-11T02:23:57.482Z,0
2016-06-11T02:24:56.453Z,0
2016-06-11T02:25:56.753Z,0
2016-06-11T02:26:56.460Z,0
2016-06-11T02:27:57.463Z,0
2016-06-11T02:28:56.605Z,0
2016-06-11T02:29:57.375Z,0
2016-06-11T02:30:56.627Z,0
2016-06-11T02:31:56.631Z,0
2016-06-11T02:32:56.634Z,0
2016-06-11T02:33:56.653Z,0
2016-06-11T02:34:57.531Z,0
2016-06-11T02:35:56.690Z,0
2016-06-11T02:36:58.693Z,0
2016-06-11T02:37:56.524Z,0
2016-06-11T02:38:57.309Z,0
2016-06-11T02:39:56.655Z,0
2016-06-11T02:40:56.517Z,0
2016-06-11T02:41:56.661Z,0
2016-06-11T02:42:56.493Z,0
2016-06-11T02:43:56.668Z,0
2016-06-11T02:44:56.655Z,0
2016-06-11T02:45:56.657Z,0
2016-06-11T02:46:56.661Z,0
2016-06-11T02:47:57.117Z,0
2016-06-11T02:48:56.667Z,0
2016-06-11T02:49:57.639Z,0
2016-06-11T02:50:56.673Z,0
2016-06-11T02:51:56.676Z,0
2016-06-11T02:52:56.680Z,0
2016-06-11T02:53:56.682Z,0
2016-06-11T02:54:56.701Z,0
2016-06-11T02:55:56.689Z,0
2016-06-11T02:56:56.692Z,0
2016-06-11T02:57:56.694Z,0
2016-06-11T02:58:58.573Z,0
2016-06-11T02:59:57.139Z,0
2016-06-11T03:00:57.298Z,0
2016-06-11T03:01:56.707Z,0
2016-06-11T03:02:56.711Z,0
2016-06-11T03:03:56.557Z,0
2016-06-11T03:04:56.716Z,0
2016-06-11T03:05:56.720Z,0
2016-06-11T03:06:56.738Z,0
2016-06-11T03:07:56.741Z,0
2016-06-11T03:08:56.729Z,0
2016-06-11T03:09:57.185Z,0
2016-06-11T03:10:56.735Z,0
2016-06-11T03:11:57.706Z,0
2016-06-11T03:12:56.740Z,0
2016-06-11T03:13:56.744Z,0
2016-06-11T03:14:56.872Z,0
2016-06-11T03:15:56.750Z,0
2016-06-11T03:16:56.753Z,0
2016-06-11T03:17:56.756Z,0
2016-06-11T03:18:56.775Z,0
2016-06-11T03:19:56.763Z,0
2016-06-11T03:20:57.359Z,0
2016-06-11T03:21:56.753Z,0
2016-06-11T03:22:57.882Z,0
2016-06-11T03:23:56.775Z,0
2016-06-11T03:24:56.762Z,0
2016-06-11T03:25:56.781Z,0
2016-06-11T03:26:56.644Z,0
2016-06-11T03:27:56.631Z,0
2016-06-11T03:28:56.790Z,0
2016-06-11T03:29:56.637Z,0
2016-06-11T03:30:56.624Z,0
2016-06-11T03:31:56.831Z,0
2016-06-11T03:32:56.787Z,0
2016-06-11T03:33:57.338Z,0
2016-06-11T03:34:56.794Z,0
2016-06-11T03:35:57.764Z,0
2016-06-11T03:36:56.862Z,0
2016-06-11T03:37:56.725Z,0
2016-06-11T03:38:56.805Z,0
2016-06-11T03:39:56.949Z,0
2016-06-11T03:40:56.827Z,0
2016-06-11T03:41:56.815Z,0
2016-06-11T03:42:56.974Z,0
2016-06-11T03:43:56.664Z,0
2016-06-11T03:44:57.480Z,0
2016-06-11T03:45:56.827Z,0
2016-06-11T03:46:57.955Z,0
2016-06-11T03:47:56.834Z,0
2016-06-11T03:48:56.837Z,0
2016-06-11T03:49:56.840Z,0
2016-06-11T03:50:56.670Z,5
2016-06-11T03:51:56.846Z,5
2016-06-11T03:52:56.849Z,5
2016-06-11T03:53:56.852Z,5
2016-06-11T03:54:56.855Z,5
2016-06-11T03:55:57.670Z,5
2016-06-11T03:56:56.861Z,5
2016-06-11T03:57:57.301Z,5
2016-06-11T03:58:56.883Z,5
2016-06-11T03:59:56.917Z,5
2016-06-11T04:00:56.873Z,5
2016-06-11T04:01:56.876Z,5
2016-06-11T04:02:56.879Z,5
2016-06-11T04:03:56.882Z,5
2016-06-11T04:04:56.869Z,5
2016-06-11T04:05:56.873Z,5
2016-06-11T04:06:57.845Z,5
2016-06-11T04:07:56.894Z,5
2016-06-11T04:08:57.757Z,5
2016-06-11T04:09:56.744Z,5
2016-06-11T04:10:57.013Z,5
2016-06-11T04:11:56.907Z,5
2016-06-11T04:12:56.753Z,5
2016-06-11T04:13:56.913Z,5
2016-06-11T04:14:56.792Z,5
2016-06-11T04:15:57.059Z,5
2016-06-11T04:16:56.922Z,5
2016-06-11T04:17:57.676Z,5
2016-06-11T04:18:56.928Z,5
2016-06-11T04:19:57.399Z,5
2016-06-11T04:20:56.919Z,5
2016-06-11T04:21:57.531Z,5
2016-06-11T04:22:56.941Z,5
2016-06-11T04:23:56.928Z,5
2016-06-11T04:24:56.635Z,5
2016-06-11T04:25:56.793Z,5
2016-06-11T04:26:56.937Z,5
2016-06-11T04:27:56.940Z,5
2016-06-11T04:28:57.428Z,5
2016-06-11T04:29:57.009Z,5
2016-06-11T04:30:58.153Z,5
2016-06-11T04:31:56.969Z,5
2016-06-11T04:32:58.081Z,5
2016-06-11T04:33:56.959Z,5
2016-06-11T04:34:56.978Z,5
2016-06-11T04:35:56.981Z,5
2016-06-11T04:36:57.015Z,5
2016-06-11T04:37:56.971Z,5
2016-06-11T04:38:57.083Z,5
2016-06-11T04:39:56.977Z,5
2016-06-11T04:40:56.996Z,5
2016-06-11T04:41:58.343Z,5
2016-06-11T04:42:57.002Z,5
2016-06-11T04:43:57.630Z,5
2016-06-11T04:44:56.884Z,5
2016-06-11T04:45:58.339Z,5
2016-06-11T04:46:56.998Z,5
2016-06-11T04:47:57.002Z,5
2016-06-11T04:48:57.021Z,5
2016-06-11T04:49:57.008Z,5
2016-06-11T04:50:57.011Z,5
2016-06-11T04:51:57.014Z,5
2016-06-11T04:52:57.751Z,5
2016-06-11T04:53:57.021Z,5
2016-06-11T04:54:58.023Z,5
2016-06-11T04:55:57.026Z,5
2016-06-11T04:56:57.654Z,5
2016-06-11T04:57:57.032Z,5
2016-06-11T04:58:57.020Z,5
2016-06-11T04:59:57.586Z,10
2016-06-11T05:00:57.525Z,10
2016-06-11T05:01:57.045Z,10
2016-06-11T05:02:57.032Z,10
2016-06-11T05:03:57.098Z,10
2016-06-11T05:04:56.898Z,10
2016-06-11T05:05:57.620Z,10
2016-06-11T05:06:57.060Z,10
2016-06-11T05:07:58.080Z,10
2016-06-11T05:08:57.066Z,10
2016-06-11T05:10:11.164Z,10
2016-06-11T05:10:57.072Z,10
2016-06-11T05:11:57.060Z,10
2016-06-11T05:12:57.063Z,10
2016-06-11T05:13:57.081Z,10
2016-06-11T05:14:57.069Z,10
2016-06-11T05:15:57.354Z,10
2016-06-11T05:16:59.247Z,10
2016-06-11T05:17:57.078Z,10
2016-06-11T05:18:57.785Z,10
2016-06-11T05:19:57.101Z,10
2016-06-11T05:20:57.088Z,10
2016-06-11T05:21:57.106Z,10
2016-06-11T05:22:57.109Z,10
2016-06-11T05:23:57.097Z,10
2016-06-11T05:24:57.115Z,10
2016-06-11T05:25:57.119Z,10
2016-06-11T05:26:57.106Z,10
2016-06-11T05:27:58.671Z,10
2016-06-11T05:28:57.112Z,10
2016-06-11T05:29:58.897Z,10
2016-06-11T05:30:57.056Z,10
2016-06-11T05:31:57.121Z,15
2016-06-11T05:32:57.124Z,15
2016-06-11T05:33:57.127Z,15
2016-06-11T05:34:57.130Z,15
2016-06-11T05:35:57.134Z,15
2016-06-11T05:36:57.136Z,15
2016-06-11T05:37:57.139Z,15
2016-06-11T05:38:57.831Z,15
2016-06-11T05:39:57.395Z,15
2016-06-11T05:40:58.289Z,15
2016-06-11T05:41:57.168Z,15
2016-06-11T05:42:57.155Z,15
2016-06-11T05:43:57.143Z,15
2016-06-11T05:44:57.036Z,15
2016-06-11T05:45:57.806Z,15
2016-06-11T05:46:57.167Z,15
2016-06-11T05:47:57.170Z,15
2016-06-11T05:48:57.158Z,15
2016-06-11T05:49:58.240Z,15
2016-06-11T05:50:57.164Z,15
2016-06-11T05:51:58.057Z,15
2016-06-11T05:52:57.186Z,15
2016-06-11T05:53:57.283Z,15
2016-06-11T05:54:57.208Z,15
2016-06-11T05:55:57.179Z,15
2016-06-11T05:56:57.232Z,15
2016-06-11T05:57:57.277Z,15
2016-06-11T05:58:57.305Z,15
2016-06-11T05:59:57.348Z,15
2016-06-11T06:00:57.955Z,15
2016-06-11T06:01:57.414Z,20
2016-06-11T06:02:58.557Z,20
2016-06-11T06:03:57.449Z,20
2016-06-11T06:04:57.982Z,20
2016-06-11T06:05:57.485Z,20
2016-06-11T06:06:57.495Z,20
2016-06-11T06:07:57.503Z,20
2016-06-11T06:08:57.512Z,20
2016-06-11T06:09:57.520Z,20
2016-06-11T06:10:57.544Z,20
2016-06-11T06:11:58.643Z,20
2016-06-11T06:12:57.539Z,20
2016-06-11T06:13:58.434Z,20
2016-06-11T06:14:57.549Z,25
2016-06-11T06:15:58.554Z,25
2016-06-11T06:16:57.558Z,25
2016-06-11T06:17:57.562Z,25
2016-06-11T06:18:57.565Z,25
2016-06-11T06:19:57.553Z,25
2016-06-11T06:20:57.557Z,25
2016-06-11T06:21:57.561Z,25
2016-06-11T06:22:57.580Z,25
2016-06-11T06:23:57.567Z,25
2016-06-11T06:24:58.741Z,25
2016-06-11T06:25:57.573Z,25
2016-06-11T06:26:59.186Z,25
2016-06-11T06:27:57.579Z,25
2016-06-11T06:28:58.442Z,25
2016-06-11T06:29:57.741Z,25
2016-06-11T06:30:58.010Z,25
2016-06-11T06:31:57.591Z,25
2016-06-11T06:32:57.439Z,25
2016-06-11T06:33:57.441Z,25
2016-06-11T06:34:57.647Z,25
2016-06-11T06:35:58.807Z,30
2016-06-11T06:36:57.701Z,30
2016-06-11T06:37:57.969Z,30
2016-06-11T06:38:57.566Z,30
2016-06-11T06:39:58.569Z,30
2016-06-11T06:40:57.619Z,30
2016-06-11T06:41:57.622Z,30
2016-06-11T06:42:57.611Z,30
2016-06-11T06:43:57.628Z,30
2016-06-11T06:44:57.631Z,30
2016-06-11T06:45:57.869Z,30
2016-06-11T06:46:58.388Z,30
2016-06-11T06:47:57.641Z,30
2016-06-11T06:48:59.737Z,30
2016-06-11T06:49:57.490Z,35
2016-06-11T06:50:58.260Z,35
2016-06-11T06:51:57.497Z,35
2016-06-11T06:52:57.655Z,35
2016-06-11T06:53:57.675Z,35
2016-06-11T06:54:57.662Z,35
2016-06-11T06:55:57.650Z,35
2016-06-11T06:56:57.684Z,35
2016-06-11T06:57:57.672Z,35
2016-06-11T06:58:57.674Z,35
2016-06-11T06:59:58.255Z,35
2016-06-11T07:00:57.525Z,35
2016-06-11T07:01:58.793Z,35
2016-06-11T07:02:57.687Z,40
2016-06-11T07:03:57.533Z,40
2016-06-11T07:04:57.678Z,40
2016-06-11T07:05:57.696Z,40
2016-06-11T07:06:57.699Z,40
2016-06-11T07:07:57.687Z,40
2016-06-11T07:08:57.705Z,40
2016-06-11T07:09:57.708Z,40
2016-06-11T07:10:59.602Z,40
2016-06-11T07:11:57.714Z,40
2016-06-11T07:12:58.264Z,40
2016-06-11T07:13:57.705Z,40
2016-06-11T07:14:57.724Z,40
2016-06-11T07:15:57.570Z,45
2016-06-11T07:16:57.557Z,45
2016-06-11T07:17:57.718Z,45
2016-06-11T07:18:57.721Z,45
2016-06-11T07:19:57.723Z,45
2016-06-11T07:20:57.727Z,45
2016-06-11T07:21:58.183Z,45
2016-06-11T07:22:57.576Z,50
2016-06-11T07:23:58.657Z,50
2016-06-11T07:24:57.739Z,50
2016-06-11T07:25:57.742Z,50
2016-06-11T07:26:57.745Z,50
2016-06-11T07:27:57.748Z,50
2016-06-11T07:28:57.736Z,50
2016-06-11T07:29:57.770Z,50
2016-06-11T07:30:57.772Z,50
2016-06-11T07:31:57.776Z,50
2016-06-11T07:32:58.763Z,50
2016-06-11T07:33:57.767Z,50
2016-06-11T07:34:58.598Z,50
2016-06-11T07:35:57.804Z,50
2016-06-11T07:36:57.932Z,50
2016-06-11T07:37:57.779Z,50
2016-06-11T07:38:57.625Z,50
2016-06-11T07:39:58.286Z,50
2016-06-11T07:40:57.881Z,50
2016-06-11T07:41:57.791Z,50
2016-06-11T07:42:57.795Z,50
2016-06-11T07:43:58.501Z,50
2016-06-11T07:44:57.800Z,50
2016-06-11T07:45:59.038Z,50
2016-06-11T07:46:57.807Z,50
2016-06-11T07:47:58.153Z,50
2016-06-11T07:48:57.813Z,55
2016-06-11T07:49:57.816Z,55
2016-06-11T07:50:57.834Z,55
2016-06-11T07:51:57.822Z,55
2016-06-11T07:52:57.825Z,55
2016-06-11T07:53:57.829Z,55
2016-06-11T07:54:58.738Z,55
2016-06-11T07:55:57.818Z,55
2016-06-11T07:56:58.415Z,55
2016-06-11T07:57:57.684Z,55
2016-06-11T07:58:58.281Z,60
2016-06-11T07:59:57.862Z,60
2016-06-11T08:00:57.896Z,60
2016-06-11T08:01:57.853Z,60
2016-06-11T08:02:57.856Z,60
2016-06-11T08:03:57.859Z,60
2016-06-11T08:04:57.877Z,60
2016-06-11T08:05:57.866Z,60
2016-06-11T08:06:57.868Z,60
2016-06-11T08:07:58.747Z,60
2016-06-11T08:08:57.874Z,60
2016-06-11T08:10:00.017Z,60
2016-06-11T08:10:57.880Z,60
2016-06-11T08:11:58.493Z,60
2016-06-11T08:12:57.746Z,60
2016-06-11T08:13:57.889Z,60
2016-06-11T08:14:57.893Z,60
2016-06-11T08:15:58.005Z,60
2016-06-11T08:16:57.899Z,60
2016-06-11T08:17:57.902Z,65
2016-06-11T08:18:59.031Z,65
2016-06-11T08:19:57.908Z,65
2016-06-11T08:20:58.254Z,65
2016-06-11T08:21:57.929Z,65
2016-06-11T08:22:59.027Z,65
2016-06-11T08:23:57.936Z,70
2016-06-11T08:24:57.939Z,70
2016-06-11T08:25:57.927Z,70
2016-06-11T08:26:57.945Z,70
2016-06-11T08:27:57.933Z,75
2016-06-11T08:28:57.951Z,75
2016-06-11T08:29:58.767Z,75
2016-06-11T08:30:59.004Z,85
2016-06-11T08:32:00.976Z,80
2016-06-11T08:32:57.963Z,80
2016-06-11T08:33:59.076Z,80
2016-06-11T08:34:57.969Z,85
2016-06-11T08:35:57.973Z,85
2016-06-11T08:36:57.976Z,85
2016-06-11T08:37:57.994Z,90
2016-06-11T08:38:57.981Z,90
2016-06-11T08:39:58.001Z,90
2016-06-11T08:40:58.098Z,90
2016-06-11T08:41:58.038Z,95
2016-06-11T08:42:59.119Z,95
2016-06-11T08:43:57.997Z,95
2016-06-11T08:44:58.828Z,95
2016-06-11T08:45:58.753Z,100
2016-06-11T08:46:58.131Z,100
2016-06-11T08:47:58.025Z,100
2016-06-11T08:48:58.012Z,105
2016-06-11T08:49:58.031Z,105
2016-06-11T08:50:58.034Z,105
2016-06-11T08:51:58.100Z,105
2016-06-11T08:52:58.041Z,105
2016-06-11T08:53:58.575Z,105
2016-06-11T08:54:58.047Z,110
2016-06-11T08:55:59.065Z,110
2016-06-11T08:56:58.068Z,110
2016-06-11T08:57:58.071Z,110
2016-06-11T08:58:58.074Z,115
2016-06-11T08:59:58.078Z,115
2016-06-11T09:00:58.752Z,115
2016-06-11T09:01:58.084Z,120
2016-06-11T09:02:58.086Z,120
2016-06-11T09:03:58.089Z,125
2016-06-11T09:04:58.796Z,125
2016-06-11T09:05:58.096Z,130
2016-06-11T09:06:59.287Z,130
2016-06-11T09:07:58.101Z,130
2016-06-11T09:08:58.121Z,130
2016-06-11T09:10:12.218Z,130
2016-06-11T09:10:58.111Z,130
2016-06-11T09:11:58.130Z,130
2016-06-11T09:12:58.149Z,130
2016-06-11T09:13:58.137Z,130
2016-06-11T09:14:58.139Z,130
2016-06-11T09:15:59.095Z,130
2016-06-11T09:16:58.473Z,130
2016-06-11T09:17:59.289Z,130
2016-06-11T09:18:58.168Z,130
2016-06-11T09:19:58.171Z,130
2016-06-11T09:20:58.158Z,130
2016-06-11T09:21:58.176Z,125
2016-06-11T09:22:58.195Z,125
2016-06-11T09:23:58.183Z,125
2016-06-11T09:24:58.186Z,125
2016-06-11T09:25:58.204Z,125
2016-06-11T09:26:58.740Z,120
2016-06-11T09:27:58.210Z,120
2016-06-11T09:28:59.964Z,115
2016-06-11T09:29:58.216Z,115
2016-06-11T09:30:59.892Z,115
2016-06-11T09:31:58.270Z,115
2016-06-11T09:32:58.242Z,115
2016-06-11T09:33:58.245Z,115
2016-06-11T09:34:58.248Z,110
2016-06-11T09:35:58.298Z,110
2016-06-11T09:36:58.254Z,105
2016-06-11T09:37:58.741Z,105
2016-06-11T09:38:58.276Z,105
2016-06-11T09:40:13.404Z,105
2016-06-11T09:40:58.251Z,105
2016-06-11T09:41:58.238Z,105
2016-06-11T09:42:58.381Z,105
2016-06-11T09:43:58.338Z,105
2016-06-11T09:44:58.295Z,105
2016-06-11T09:45:59.219Z,105
2016-06-11T09:47:00.816Z,105
2016-06-11T09:47:58.335Z,110
2016-06-11T09:48:59.821Z,105
2016-06-11T09:49:58.325Z,105
2016-06-11T09:50:58.328Z,105
2016-06-11T09:51:58.347Z,105
2016-06-11T09:52:58.334Z,105
2016-06-11T09:53:59.009Z,105
2016-06-11T09:54:58.340Z,100
2016-06-11T09:55:59.312Z,100
2016-06-11T09:56:58.393Z,100
2016-06-11T09:57:59.553Z,100
2016-06-11T09:58:58.275Z,100
2016-06-11T09:59:58.371Z,100
2016-06-11T10:00:58.874Z,95
2016-06-11T10:01:59.175Z,95
2016-06-11T10:02:58.990Z,95
2016-06-11T10:03:58.399Z,95
2016-06-11T10:04:59.668Z,95
2016-06-11T10:05:58.438Z,90
2016-06-11T10:06:58.408Z,90
2016-06-11T10:07:58.458Z,90
2016-06-11T10:08:58.414Z,95
2016-06-11T10:09:58.543Z,95
2016-06-11T10:10:58.437Z,95
2016-06-11T10:11:59.705Z,95
2016-06-11T10:12:58.442Z,100
2016-06-11T10:13:58.851Z,100
2016-06-11T10:14:58.605Z,105
2016-06-11T10:15:58.452Z,105
2016-06-11T10:16:58.783Z,110
2016-06-11T10:17:58.333Z,110
2016-06-11T10:18:59.414Z,110
2016-06-11T10:19:58.465Z,115
2016-06-11T10:20:59.983Z,110
2016-06-11T10:21:58.501Z,110
2016-06-11T10:22:58.504Z,110
2016-06-11T10:23:58.523Z,115
2016-06-11T10:24:58.354Z,115
2016-06-11T10:25:58.732Z,115
2016-06-11T10:26:58.502Z,115
2016-06-11T10:28:00.035Z,115
2016-06-11T10:28:58.617Z,120
2016-06-11T10:29:59.682Z,120
2016-06-11T10:30:58.529Z,120
2016-06-11T10:31:59.345Z,120
2016-06-11T10:32:58.582Z,120
2016-06-11T10:33:58.586Z,120
2016-06-11T10:34:58.776Z,120
2016-06-11T10:35:58.560Z,120
2016-06-11T10:37:00.189Z,120
2016-06-11T10:37:58.628Z,115
2016-06-11T10:38:58.600Z,115
2016-06-11T10:40:07.792Z,115
2016-06-11T10:40:58.622Z,115
2016-06-11T10:41:59.438Z,115
2016-06-11T10:42:58.612Z,115
2016-06-11T10:44:00.772Z,115
2016-06-11T10:44:58.744Z,115
2016-06-11T10:45:58.716Z,115
2016-06-11T10:46:59.469Z,115
2016-06-11T10:47:58.863Z,115
2016-06-11T10:48:58.835Z,115
2016-06-11T10:49:58.697Z,115
2016-06-11T10:51:01.576Z,120
2016-06-11T10:51:58.718Z,120
2016-06-11T10:52:58.629Z,115
2016-06-11T10:53:58.521Z,115
2016-06-11T10:54:58.744Z,115
2016-06-11T10:55:58.997Z,115
2016-06-11T10:56:58.828Z,115
2016-06-11T10:57:59.550Z,115
2016-06-11T10:58:58.709Z,115
2016-06-11T10:59:58.821Z,115
2016-06-11T11:00:58.793Z,115
2016-06-11T11:01:58.890Z,115
2016-06-11T11:02:58.800Z,115
2016-06-11T11:03:58.755Z,110
2016-06-11T11:04:59.055Z,110
2016-06-11T11:05:58.778Z,110
2016-06-11T11:06:58.796Z,110
2016-06-11T11:07:58.800Z,110
2016-06-11T11:08:58.834Z,110
2016-06-11T11:09:59.118Z,105
2016-06-11T11:10:58.839Z,105
2016-06-11T11:12:00.374Z,105
2016-06-11T11:12:58.815Z,105
2016-06-11T11:13:58.849Z,100
2016-06-11T11:14:58.789Z,100
2016-06-11T11:15:58.949Z,100
2016-06-11T11:17:00.374Z,100
2016-06-11T11:17:58.876Z,100
2016-06-11T11:19:00.396Z,100
2016-06-11T11:19:58.727Z,100
2016-06-11T11:20:58.855Z,100
2016-06-11T11:21:58.952Z,100
2016-06-11T11:22:58.846Z,100
2016-06-11T11:23:59.036Z,100
2016-06-11T11:24:58.930Z,100
2016-06-11T11:25:58.870Z,100
2016-06-11T11:26:58.842Z,100
2016-06-11T11:27:58.939Z,100
2016-06-11T11:28:59.067Z,100
2016-06-11T11:29:58.930Z,100
2016-06-11T11:30:59.105Z,100
2016-06-11T11:31:58.811Z,100
2016-06-11T11:33:00.423Z,100
2016-06-11T11:33:59.005Z,95
2016-06-11T11:34:58.819Z,95
2016-06-11T11:35:58.917Z,95
2016-06-11T11:36:59.092Z,95
2016-06-11T11:37:59.031Z,90
2016-06-11T11:38:58.973Z,90
2016-06-11T11:40:13.258Z,90
2016-06-11T11:40:58.963Z,90
2016-06-11T11:41:59.122Z,95
2016-06-11T11:42:59.001Z,95
2016-06-11T11:43:58.941Z,90
2016-06-11T11:44:59.741Z,90
2016-06-11T11:45:59.135Z,90
2016-06-11T11:46:59.028Z,90
2016-06-11T11:47:59.641Z,90
2016-06-11T11:48:58.988Z,95
2016-06-11T11:50:00.178Z,95
2016-06-11T11:50:59.072Z,95
2016-06-11T11:51:59.060Z,95
2016-06-11T11:52:59.172Z,95
2016-06-11T11:53:59.128Z,95
2016-06-11T11:54:59.006Z,95
2016-06-11T11:55:59.150Z,95
2016-06-11T11:56:59.387Z,95
2016-06-11T11:57:59.140Z,95
2016-06-11T11:58:59.143Z,95
2016-06-11T11:59:59.053Z,90
2016-06-11T12:00:59.244Z,90
2016-06-11T12:01:59.731Z,90
2016-06-11T12:02:59.469Z,90
2016-06-11T12:04:00.237Z,90
2016-06-11T12:04:59.224Z,90
2016-06-11T12:05:59.228Z,90
2016-06-11T12:06:59.309Z,90
2016-06-11T12:07:59.171Z,90
2016-06-11T12:08:59.174Z,90
2016-06-11T12:09:59.225Z,90
2016-06-11T12:10:59.289Z,90
2016-06-11T12:11:59.199Z,90
2016-06-11T12:12:59.203Z,90
2016-06-11T12:13:59.237Z,90
2016-06-11T12:14:59.395Z,90
2016-06-11T12:16:00.462Z,90
2016-06-11T12:17:00.574Z,90
2016-06-11T12:17:59.186Z,90
2016-06-11T12:18:59.236Z,90
2016-06-11T12:19:59.239Z,90
2016-06-11T12:20:59.227Z,90
2016-06-11T12:21:59.214Z,90
2016-06-11T12:23:00.780Z,90
2016-06-11T12:23:59.251Z,90
2016-06-11T12:24:59.271Z,90
2016-06-11T12:25:59.398Z,90
2016-06-11T12:26:59.277Z,85
2016-06-11T12:28:00.827Z,85
2016-06-11T12:28:59.282Z,85
2016-06-11T12:29:59.286Z,85
2016-06-11T12:30:59.305Z,85
2016-06-11T12:31:58.964Z,85
2016-06-11T12:32:59.342Z,85
2016-06-11T12:33:59.314Z,85
2016-06-11T12:35:00.458Z,85
2016-06-11T12:35:59.477Z,85
2016-06-11T12:36:59.244Z,85
2016-06-11T12:37:59.326Z,85
2016-06-11T12:38:59.375Z,85
2016-06-11T12:39:59.911Z,85
2016-06-11T12:40:59.492Z,85
2016-06-11T12:41:59.479Z,85
2016-06-11T12:42:59.467Z,85
2016-06-11T12:43:59.423Z,90
2016-06-11T12:45:00.707Z,90
2016-06-11T12:45:59.397Z,90
2016-06-11T12:47:00.494Z,90
2016-06-11T12:48:00.419Z,85
2016-06-11T12:48:59.625Z,85
2016-06-11T12:49:59.489Z,85
2016-06-11T12:50:59.397Z,85
2016-06-11T12:52:00.307Z,85
2016-06-11T12:52:59.482Z,80
2016-06-11T12:53:59.329Z,80
2016-06-11T12:55:00.941Z,80
2016-06-11T12:55:59.491Z,80
2016-06-11T12:56:59.353Z,80
2016-06-11T12:57:59.544Z,80
2016-06-11T12:58:59.391Z,75
2016-06-11T13:00:00.160Z,75
2016-06-11T13:00:59.350Z,75
2016-06-11T13:02:00.181Z,75
2016-06-11T13:03:00.372Z,70
2016-06-11T13:03:59.468Z,70
2016-06-11T13:04:59.519Z,70
2016-06-11T13:05:58.958Z,70
2016-06-11T13:06:59.650Z,65
2016-06-11T13:07:59.544Z,65
2016-06-11T13:08:59.406Z,65
2016-06-11T13:09:59.503Z,65
2016-06-11T13:10:59.615Z,65
2016-06-11T13:12:00.352Z,65
2016-06-11T13:12:59.621Z,60
2016-06-11T13:13:59.374Z,60
2016-06-11T13:14:59.394Z,60
2016-06-11T13:15:59.458Z,60
2016-06-11T13:17:00.821Z,60
2016-06-11T13:18:00.574Z,60
2016-06-11T13:18:59.546Z,60
2016-06-11T13:19:59.612Z,60
2016-06-11T13:20:59.584Z,60
2016-06-11T13:22:00.837Z,60
2016-06-11T13:22:59.543Z,60
2016-06-11T13:23:59.655Z,60
2016-06-11T13:24:59.580Z,60
2016-06-11T13:25:59.583Z,60
2016-06-11T13:27:00.384Z,60
2016-06-11T13:27:59.745Z,60
2016-06-11T13:28:59.639Z,60
2016-06-11T13:29:59.767Z,60
2016-06-11T13:30:59.629Z,60
2016-06-11T13:32:00.368Z,60
2016-06-11T13:32:59.496Z,60
2016-06-11T13:33:59.686Z,60
2016-06-11T13:35:00.627Z,60
2016-06-11T13:35:59.630Z,60
2016-06-11T13:37:00.320Z,60
2016-06-11T13:37:59.573Z,60
2016-06-11T13:38:59.732Z,60
2016-06-11T13:39:59.720Z,60
2016-06-11T13:40:59.630Z,60
2016-06-11T13:41:59.616Z,60
2016-06-11T13:42:59.652Z,60
2016-06-11T13:43:59.748Z,60
2016-06-11T13:44:59.783Z,60
2016-06-11T13:45:59.675Z,60
2016-06-11T13:47:01.070Z,60
2016-06-11T13:48:00.276Z,60
2016-06-11T13:48:59.732Z,60
2016-06-11T13:49:59.735Z,60
2016-06-11T13:50:59.722Z,60
2016-06-11T13:51:59.850Z,60
2016-06-11T13:52:59.900Z,60
2016-06-11T13:53:59.653Z,60
2016-06-11T13:55:00.625Z,60
2016-06-11T13:55:59.660Z,60
2016-06-11T13:56:59.740Z,60
2016-06-11T13:57:59.697Z,60
2016-06-11T13:58:59.794Z,60
2016-06-11T14:00:00.922Z,60
2016-06-11T14:00:59.785Z,60
2016-06-11T14:01:59.678Z,60
2016-06-11T14:03:01.072Z,60
2016-06-11T14:03:59.903Z,60
2016-06-11T14:04:59.828Z,60
2016-06-11T14:06:00.050Z,60
2016-06-11T14:06:59.787Z,60
2016-06-11T14:08:01.353Z,65
2016-06-11T14:08:59.747Z,60
2016-06-11T14:10:19.937Z,65
2016-06-11T14:10:59.894Z,65
2016-06-11T14:11:59.958Z,65
2016-06-11T14:12:59.852Z,65
2016-06-11T14:13:59.840Z,65
2016-06-11T14:14:59.859Z,65
2016-06-11T14:16:00.424Z,65
2016-06-11T14:17:01.131Z,65
2016-06-11T14:18:00.602Z,65
2016-06-11T14:18:59.950Z,65
2016-06-11T14:19:59.936Z,65
2016-06-11T14:21:00.847Z,65